Terminal Aerodrome Forecast
Issued by NWS

Home | Current Version | Previous Version | Text Only | Print | Product List | Glossary On
Versions: 1 2 3 4 5 6 7 8 9 10 11 12 13 14 15 16 17
000
FTUS46 KLOX 281700
TAFLGB
TAF
KLGB 281740Z 2818/0118 25012KT P6SM SCT035 BKN045
     FM010300 28007KT P6SM -SHRA SCT015 OVC030
     FM010700 VRB06KT P6SM -SHRA SCT015 OVC030
     FM011100 VRB03KT P6SM SCT025 BKN035 PROB30 0111/0115 22019KT
      -TSRA OVC030CB=

USA.gov is the U.S. government's official web portal to all federal, state and local government web resources and services.